WetterOnline ( http://www.wetteronline.de )

Wetter aktuell Schwerin

Aktuelles Wetter: Schwerin (68m)

6-stündlich | Neueste Meldungen
Ortszeit Temperatur Wetter
Fr, 27.04. 2:00 5.2° C wolkig
Do, 26.04. 20:00 9.6° C leicht bewölkt
Do, 26.04. 14:00 7.6° C leichter Regen
Do, 26.04. 8:00 6.4° C leichter Regen
Do, 26.04. 2:00 7.0° C leicht bewölkt
Mi, 25.04. 20:00 9.6° C bewölkt
Mi, 25.04. 14:00 11.3° C bedeckt
Mi, 25.04. 8:00 11.3° C bewölkt
Ortszeit Temperatur Wetter
Fr, 27.04. 2:30 5.2° C wolkig
Fr, 27.04. 2:10 5.4° C leicht bewölkt
Fr, 27.04. 2:00 5.2° C wolkig
Fr, 27.04. 1:40 5.3° C bewölkt
Fr, 27.04. 1:30 5.3° C bedeckt
Fr, 27.04. 1:20 5.3° C bedeckt
Fr, 27.04. 1:00 5.0° C wolkig
Fr, 27.04. 0:30 5.3° C leicht bewölkt
Fr, 27.04. 0:00 5.7° C leicht bewölkt
Do, 26.04. 23:30 6.0° C leicht bewölkt
Ortszeit Relative Feuchte Sichtweite
Fr, 27.04. 2:00 96% 12 km
Do, 26.04. 20:00 74% 45 km
Do, 26.04. 14:00 87% 14 km
Do, 26.04. 8:00 94% 4.0 km
Do, 26.04. 2:00 88% 27 km
Mi, 25.04. 20:00 78% 45 km
Mi, 25.04. 14:00 74% 35 km
Mi, 25.04. 8:00 94% 2.9 km
Ortszeit Relative Feuchte Sichtweite
Fr, 27.04. 2:30 96% 13 km
Fr, 27.04. 2:10 95% -
Fr, 27.04. 2:00 96% 12 km
Fr, 27.04. 1:40 97% -
Fr, 27.04. 1:30 96% 13 km
Fr, 27.04. 1:20 96% -
Fr, 27.04. 1:00 93% 21 km
Fr, 27.04. 0:30 91% 29 km
Fr, 27.04. 0:00 90% 30 km
Do, 26.04. 23:30 91% 30 km
Ortszeit Niederschlagsmenge Niederschlagsart
Fr, 27.04. 2:00 0.1 l/m2 in 6 Std. Regen
Do, 26.04. 20:00 4 l/m2 in 12 Std. Regen
Do, 26.04. 14:00 3 l/m2 in 6 Std. Regen
Do, 26.04. 8:00 0.6 l/m2 in 12 Std. Regen
Do, 26.04. 2:00 0.2 l/m2 in 6 Std. Regen
Mi, 25.04. 20:00 0.1 l/m2 in 12 Std. Regen
Mi, 25.04. 14:00 0.0 l/m2 in 6 Std. -
Mi, 25.04. 8:00 6 l/m2 in 12 Std. Regen
Ortszeit Niederschlagsmenge Niederschlagsart
Fr, 27.04. 2:30 0.0 l/m2 in 1 Std. -
Fr, 27.04. 2:10 keine Meldung -
Fr, 27.04. 2:00 0.0 l/m2 in 1 Std. Regen
Fr, 27.04. 1:40 keine Meldung -
Fr, 27.04. 1:30 0.0 l/m2 in 1 Std. -
Fr, 27.04. 1:20 keine Meldung -
Fr, 27.04. 1:00 0.0 l/m2 in 1 Std. -
Fr, 27.04. 0:30 0.0 l/m2 in 1 Std. -
Fr, 27.04. 0:00 0.0 l/m2 in 1 Std. -
Do, 26.04. 23:30 0.0 l/m2 in 1 Std. -
Ortszeit Stärke Spitze Richtung
km/h Bft. km/h Grad Sektor
Fr, 27.04. 2:00 15 3 41 210° SW
Do, 26.04. 20:00 18 3 65 270° W
Do, 26.04. 14:00 22 4 43 250° W
Do, 26.04. 8:00 18 3 29 220° SW
Do, 26.04. 2:00 18 3 29 250° W
Mi, 25.04. 20:00 13 3 63 270° W
Mi, 25.04. 14:00 35 5 70 260° W
Mi, 25.04. 8:00 19 3 31 210° SW
Ortszeit Stärke Spitze Richtung
km/h Bft. km/h Grad Sektor
Fr, 27.04. 2:30 14 3 22 210° SW
Fr, 27.04. 2:10 13 3 - 210° SW
Fr, 27.04. 2:00 15 3 22 210° SW
Fr, 27.04. 1:40 14 3 - 210° SW
Fr, 27.04. 1:30 15 3 22 210° SW
Fr, 27.04. 1:20 15 3 - 210° SW
Fr, 27.04. 1:00 15 3 20 210° SW
Fr, 27.04. 0:30 17 3 20 220° SW
Fr, 27.04. 0:00 14 3 18 240° SW
Do, 26.04. 23:30 11 2 18 230° SW
Ortszeit Untergrenze Bedeckung Gattung
total tief tief mittel hoch
Fr, 27.04. 2:00 1110 m 5/8 5/8 - - -
Do, 26.04. 20:00 960 m 6/8 1/8 - - -
Do, 26.04. 14:00 1050 m 6/8 3/8 - - -
Do, 26.04. 8:00 270 m 8/8 8/8 - - -
Do, 26.04. 2:00 1440 m 4/8 1/8 - - -
Mi, 25.04. 20:00 1800 m 7/8 7/8 - - -
Mi, 25.04. 14:00 630 m 8/8 8/8 - - -
Mi, 25.04. 8:00 870 m 7/8 7/8 - - -
Ortszeit Bedeckungsgrad in Achtel und Wolkenuntergrenze
Fr, 27.04. 2:30 4(1800m) 5(3600m)
Fr, 27.04. 2:10 4(1800m) 4(3600m)
Fr, 27.04. 2:00 3(1110m) 5(1800m)
Fr, 27.04. 1:40 5(1110m) 7(1800m)
Fr, 27.04. 1:30 8(1800m) 8(3600m)
Fr, 27.04. 1:20 8(1800m) 8(3600m)
Fr, 27.04. 1:00 4(1800m) 5(3600m)
Fr, 27.04. 0:30 1(3600m) 3(4800m) 3(4800m)
Fr, 27.04. 0:00 2(1800m) 5(4800m)
Do, 26.04. 23:30 1(1800m) 4(4800m)
Ortszeit Luftdruck NN (hPa) Tendenz (hPa in 3 Std.)
Fr, 27.04. 2:00 1015 + 0,2
Do, 26.04. 20:00 1014 + 0,9
Do, 26.04. 14:00 1012 + 1,2
Do, 26.04. 8:00 1010 + 0,1
Do, 26.04. 2:00 1010 + 0,2
Mi, 25.04. 20:00 1009 + 0,5
Mi, 25.04. 14:00 1004 + 2,5
Mi, 25.04. 8:00 1002 - 2,3
Ortszeit Luftdruck NN (hPa) Tendenz (hPa in 3 Std.)
Fr, 27.04. 2:30 1015 + 0,1
Fr, 27.04. 2:10 1015 keine Meldung
Fr, 27.04. 2:00 1015 + 0,2
Fr, 27.04. 1:40 1015 keine Meldung
Fr, 27.04. 1:30 1016 + 0,3
Fr, 27.04. 1:20 1016 keine Meldung
Fr, 27.04. 1:00 1015 - 0,1
Fr, 27.04. 0:30 1015 + 0,5
Fr, 27.04. 0:00 1015 + 0,9
Do, 26.04. 23:30 1015 + 1,0
Ortszeit Schneehöhe (cm)
Fr, 27.04. 2:00 0
Do, 26.04. 20:00 0
Do, 26.04. 14:00 0
Do, 26.04. 8:00 0
Do, 26.04. 2:00 0
Mi, 25.04. 20:00 0
Mi, 25.04. 14:00 0
Mi, 25.04. 8:00 0
Ortszeit Schneehöhe (cm)
Fr, 27.04. 2:30 0
Fr, 27.04. 2:10 0
Fr, 27.04. 2:00 0
Fr, 27.04. 1:40 0
Fr, 27.04. 1:30 0
Fr, 27.04. 1:20 0
Fr, 27.04. 1:00 0
Fr, 27.04. 0:30 0
Fr, 27.04. 0:00 0
Do, 26.04. 23:30 0
Link zu dieser Seite / Seite empfehlen

Das Wetter in ...